CheckWX is a tool to help pilots better visualize weather data.  It is not intended as a substitute for an official pre-flight weather briefing.

20:25:44 UTC

KLRD METAR
Laredo International Airport
Laredo, Texas, USA
Current

30 mins ago

KLRD 201956Z 14012G16KT 10SM CLR 33/10 A2999 RMK AO2 SLP160 T03280100
Observed
Apr-20 @ 19:56 UTC
Wind
  • 140° at 12 KTS
  • Gusting to 16 KTS
Visibility
10 SM
Flight Rules
VFR
Cloud Levels
  • Clear skies
Temperature
33°C / 91°F
Dewpoint
10°C / 50°F
Humidity
24%
Altimeter
29.99" Hg
Pressure
1015.62 hPa
Previous

1 hour ago

KLRD 201856Z 13012KT 10SM CLR 32/09 A3002 RMK AO2 SLP174 T03170094
Observed
Apr-20 @ 18:56 UTC
Wind
  • 130° at 12 KTS
Visibility
10 SM
Flight Rules
VFR
Cloud Levels
  • Clear skies
Temperature
32°C / 90°F
Dewpoint
C / 48°F
Humidity
24%
Altimeter
30.02" Hg
Pressure
1016.62 hPa
Previous

2 hours ago

KLRD 201756Z 16011KT 10SM 30/09 A3005 RMK AO2 SLP184 T03000089 10300 20167 58016
Observed
Apr-20 @ 17:56 UTC
Wind
  • 160° at 11 KTS
Visibility
10 SM
Temperature
30°C / 86°F
Dewpoint
C / 48°F
Humidity
27%
Altimeter
30.05" Hg
Pressure
1017.62 hPa